sensor_id;sensor_type;location;lat;lon;timestamp;pressure;altitude;pressure_sealevel;temperature;humidity
75221;BME280;63802;53.232;6.570;2024-01-30T00:01:25;102607.84;;;5.99;100.00
75221;BME280;63802;53.232;6.570;2024-01-30T00:04:02;102590.38;;;5.86;100.00
75221;BME280;63802;53.232;6.570;2024-01-30T00:06:29;102582.50;;;5.90;100.00
75221;BME280;63802;53.232;6.570;2024-01-30T00:08:55;102574.41;;;5.85;100.00
75221;BME280;63802;53.232;6.570;2024-01-30T00:11:22;102585.19;;;5.90;100.00
75221;BME280;63802;53.232;6.570;2024-01-30T00:13:51;102597.94;;;5.89;100.00
75221;BME280;63802;53.232;6.570;2024-01-30T00:16:29;102556.28;;;5.80;100.00
75221;BME280;63802;53.232;6.570;2024-01-30T00:18:55;102549.59;;;5.73;100.00
75221;BME280;63802;53.232;6.570;2024-01-30T00:21:34;102540.34;;;5.74;100.00
75221;BME280;63802;53.232;6.570;2024-01-30T00:24:00;102581.78;;;6.03;100.00
75221;BME280;63802;53.232;6.570;2024-01-30T00:26:29;102566.44;;;5.93;100.00
75221;BME280;63802;53.232;6.570;2024-01-30T00:31:31;102533.44;;;5.63;100.00
75221;BME280;63802;53.232;6.570;2024-01-30T00:34:07;102541.47;;;5.73;100.00
75221;BME280;63802;53.232;6.570;2024-01-30T00:49:52;102555.94;;;6.11;100.00
75221;BME280;63802;53.232;6.570;2024-01-30T00:52:18;102543.84;;;6.03;100.00
75221;BME280;63802;53.232;6.570;2024-01-30T00:54:44;102515.84;;;5.89;100.00
75221;BME280;63802;53.232;6.570;2024-01-30T00:57:11;102525.44;;;6.00;100.00
75221;BME280;63802;53.232;6.570;2024-01-30T00:59:37;102521.25;;;5.89;100.00
75221;BME280;63802;53.232;6.570;2024-01-30T01:07:14;102523.47;;;5.82;100.00
75221;BME280;63802;53.232;6.570;2024-01-30T01:09:40;102532.13;;;5.84;100.00
75221;BME280;63802;53.232;6.570;2024-01-30T01:12:15;102523.47;;;5.82;100.00
75221;BME280;63802;53.232;6.570;2024-01-30T01:15:12;102541.13;;;6.03;100.00
75221;BME280;63802;53.232;6.570;2024-01-30T01:17:43;102538.44;;;6.03;100.00
75221;BME280;63802;53.232;6.570;2024-01-30T01:20:16;102528.41;;;6.03;100.00
75221;BME280;63802;53.232;6.570;2024-01-30T01:22:42;102538.31;;;6.13;100.00
75221;BME280;63802;53.232;6.570;2024-01-30T01:25:13;102517.69;;;5.93;100.00
75221;BME280;63802;53.232;6.570;2024-01-30T01:27:51;102521.41;;;5.97;100.00
75221;BME280;63802;53.232;6.570;2024-01-30T01:30:24;102511.22;;;5.89;100.00
75221;BME280;63802;53.232;6.570;2024-01-30T01:33:10;102503.97;;;5.85;100.00
75221;BME280;63802;53.232;6.570;2024-01-30T01:35:42;102497.47;;;5.81;100.00
75221;BME280;63802;53.232;6.570;2024-01-30T01:38:07;102543.38;;;5.96;100.00
75221;BME280;63802;53.232;6.570;2024-01-30T01:40:34;102521.72;;;5.96;100.00
75221;BME280;63802;53.232;6.570;2024-01-30T01:43:10;102510.19;;;5.85;100.00
75221;BME280;63802;53.232;6.570;2024-01-30T01:45:36;102491.38;;;5.70;100.00
75221;BME280;63802;53.232;6.570;2024-01-30T01:48:06;102543.09;;;5.97;100.00
75221;BME280;63802;53.232;6.570;2024-01-30T01:50:34;102491.59;;;5.74;100.00
75221;BME280;63802;53.232;6.570;2024-01-30T01:53:08;102503.59;;;5.68;100.00
75221;BME280;63802;53.232;6.570;2024-01-30T01:55:47;102512.69;;;5.77;100.00
75221;BME280;63802;53.232;6.570;2024-01-30T01:58:19;102500.72;;;5.83;100.00
75221;BME280;63802;53.232;6.570;2024-01-30T02:00:47;102495.97;;;5.70;100.00
75221;BME280;63802;53.232;6.570;2024-01-30T02:03:15;102498.13;;;5.73;100.00
75221;BME280;63802;53.232;6.570;2024-01-30T02:06:06;102491.59;;;5.74;100.00
75221;BME280;63802;53.232;6.570;2024-01-30T02:08:33;102508.22;;;5.91;100.00
75221;BME280;63802;53.232;6.570;2024-01-30T02:11:00;102511.84;;;6.05;100.00
75221;BME280;63802;53.232;6.570;2024-01-30T02:13:27;102510.31;;;5.99;100.00
75221;BME280;63802;53.232;6.570;2024-01-30T02:16:02;102497.94;;;5.88;100.00
75221;BME280;63802;53.232;6.570;2024-01-30T02:18:31;102486.06;;;5.84;100.00
75221;BME280;63802;53.232;6.570;2024-01-30T02:21:06;102461.28;;;5.72;100.00
75221;BME280;63802;53.232;6.570;2024-01-30T02:23:44;102461.16;;;5.82;100.00
75221;BME280;63802;53.232;6.570;2024-01-30T02:26:13;102466.50;;;5.92;100.00
75221;BME280;63802;53.232;6.570;2024-01-30T02:28:40;102470.81;;;5.93;100.00
75221;BME280;63802;53.232;6.570;2024-01-30T02:31:07;102439.13;;;5.70;100.00
75221;BME280;63802;53.232;6.570;2024-01-30T02:33:48;102459.63;;;5.76;100.00
75221;BME280;63802;53.232;6.570;2024-01-30T02:36:17;102439.16;;;5.65;100.00
75221;BME280;63802;53.232;6.570;2024-01-30T02:39:33;102495.19;;;5.93;100.00
75221;BME280;63802;53.232;6.570;2024-01-30T02:45:13;102431.50;;;5.72;100.00
75221;BME280;63802;53.232;6.570;2024-01-30T02:47:47;102452.75;;;5.83;100.00
75221;BME280;63802;53.232;6.570;2024-01-30T02:50:19;102471.25;;;6.00;100.00
75221;BME280;63802;53.232;6.570;2024-01-30T02:52:46;102475.06;;;5.99;100.00
75221;BME280;63802;53.232;6.570;2024-01-30T02:55:12;102454.03;;;5.91;100.00
75221;BME280;63802;53.232;6.570;2024-01-30T02:57:39;102440.56;;;5.86;100.00
75221;BME280;63802;53.232;6.570;2024-01-30T03:00:08;102466.81;;;6.09;100.00
75221;BME280;63802;53.232;6.570;2024-01-30T03:05:22;102417.91;;;5.77;100.00
75221;BME280;63802;53.232;6.570;2024-01-30T03:07:49;102438.22;;;5.98;100.00
75221;BME280;63802;53.232;6.570;2024-01-30T03:10:15;102458.25;;;6.02;100.00
75221;BME280;63802;53.232;6.570;2024-01-30T03:12:50;102444.25;;;5.95;100.00
75221;BME280;63802;53.232;6.570;2024-01-30T03:15:17;102450.00;;;6.07;100.00
75221;BME280;63802;53.232;6.570;2024-01-30T03:17:44;102438.22;;;5.98;100.00
75221;BME280;63802;53.232;6.570;2024-01-30T03:20:28;102445.47;;;6.02;100.00
75221;BME280;63802;53.232;6.570;2024-01-30T03:22:55;102428.78;;;5.95;100.00
75221;BME280;63802;53.232;6.570;2024-01-30T03:25:22;102455.38;;;6.12;100.00
75221;BME280;63802;53.232;6.570;2024-01-30T03:27:58;102431.41;;;6.00;100.00
75221;BME280;63802;53.232;6.570;2024-01-30T03:30:38;102413.47;;;5.86;100.00
75221;BME280;63802;53.232;6.570;2024-01-30T03:33:27;102425.19;;;6.00;100.00
75221;BME280;63802;53.232;6.570;2024-01-30T03:36:15;102410.69;;;5.91;100.00
75221;BME280;63802;53.232;6.570;2024-01-30T03:38:41;102440.88;;;6.03;100.00
75221;BME280;63802;53.232;6.570;2024-01-30T03:41:08;102429.22;;;6.02;100.00
75221;BME280;63802;53.232;6.570;2024-01-30T03:43:35;102418.25;;;5.94;100.00
75221;BME280;63802;53.232;6.570;2024-01-30T03:46:04;102392.91;;;5.85;100.00
75221;BME280;63802;53.232;6.570;2024-01-30T03:48:30;102381.41;;;5.93;100.00
75221;BME280;63802;53.232;6.570;2024-01-30T03:51:34;102381.41;;;5.93;100.00
75221;BME280;63802;53.232;6.570;2024-01-30T03:54:10;102396.88;;;6.11;100.00
75221;BME280;63802;53.232;6.570;2024-01-30T03:56:36;102364.88;;;5.94;100.00
75221;BME280;63802;53.232;6.570;2024-01-30T03:59:11;102393.41;;;6.24;100.00
75221;BME280;63802;53.232;6.570;2024-01-30T04:01:55;102372.97;;;6.13;100.00
75221;BME280;63802;53.232;6.570;2024-01-30T04:04:51;102350.72;;;6.16;100.00
75221;BME280;63802;53.232;6.570;2024-01-30T04:07:17;102356.56;;;6.23;100.00
75221;BME280;63802;53.232;6.570;2024-01-30T04:09:43;102343.31;;;6.03;100.00
75221;BME280;63802;53.232;6.570;2024-01-30T04:12:12;102373.63;;;6.05;100.00
75221;BME280;63802;53.232;6.570;2024-01-30T04:14:45;102400.59;;;6.15;100.00
75221;BME280;63802;53.232;6.570;2024-01-30T04:17:18;102411.78;;;6.27;100.00
75221;BME280;63802;53.232;6.570;2024-01-30T04:19:44;102383.94;;;6.22;100.00
75221;BME280;63802;53.232;6.570;2024-01-30T04:24:50;102384.53;;;6.37;100.00
75221;BME280;63802;53.232;6.570;2024-01-30T04:27:28;102375.50;;;6.42;100.00
75221;BME280;63802;53.232;6.570;2024-01-30T04:29:54;102384.44;;;6.42;100.00
75221;BME280;63802;53.232;6.570;2024-01-30T04:32:27;102351.09;;;6.42;100.00
75221;BME280;63802;53.232;6.570;2024-01-30T04:35:06;102370.72;;;6.52;100.00
75221;BME280;63802;53.232;6.570;2024-01-30T04:38:09;102366.28;;;6.43;100.00
75221;BME280;63802;53.232;6.570;2024-01-30T04:40:47;102415.47;;;6.68;100.00
75221;BME280;63802;53.232;6.570;2024-01-30T04:43:20;102421.91;;;6.72;100.00
75221;BME280;63802;53.232;6.570;2024-01-30T04:45:51;102363.91;;;6.55;100.00
75221;BME280;63802;53.232;6.570;2024-01-30T04:48:27;102361.19;;;6.55;100.00
75221;BME280;63802;53.232;6.570;2024-01-30T04:51:12;102366.00;;;6.58;100.00
75221;BME280;63802;53.232;6.570;2024-01-30T04:53:48;102384.50;;;6.69;100.00
75221;BME280;63802;53.232;6.570;2024-01-30T04:56:14;102372.88;;;6.69;100.00
75221;BME280;63802;53.232;6.570;2024-01-30T05:03:52;102354.16;;;6.67;100.00
75221;BME280;63802;53.232;6.570;2024-01-30T05:06:36;102361.81;;;6.79;100.00
75221;BME280;63802;53.232;6.570;2024-01-30T05:09:03;102364.25;;;6.81;100.00
75221;BME280;63802;53.232;6.570;2024-01-30T05:12:06;102384.16;;;6.90;100.00
75221;BME280;63802;53.232;6.570;2024-01-30T05:14:42;102390.19;;;6.87;100.00
75221;BME280;63802;53.232;6.570;2024-01-30T05:17:17;102346.53;;;6.69;100.00
75221;BME280;63802;53.232;6.570;2024-01-30T05:20:02;102345.44;;;6.70;100.00
75221;BME280;63802;53.232;6.570;2024-01-30T05:22:35;102339.13;;;6.75;100.00
75221;BME280;63802;53.232;6.570;2024-01-30T05:25:05;102362.84;;;6.83;100.00
75221;BME280;63802;53.232;6.570;2024-01-30T05:27:33;102383.66;;;7.01;100.00
75221;BME280;63802;53.232;6.570;2024-01-30T05:30:24;102346.75;;;6.87;100.00
75221;BME280;63802;53.232;6.570;2024-01-30T05:32:50;102327.88;;;6.82;100.00
75221;BME280;63802;53.232;6.570;2024-01-30T05:35:21;102345.00;;;6.96;100.00
75221;BME280;63802;53.232;6.570;2024-01-30T05:37:48;102329.38;;;6.88;100.00
75221;BME280;63802;53.232;6.570;2024-01-30T05:40:15;102347.88;;;6.99;100.00
75221;BME280;63802;53.232;6.570;2024-01-30T05:42:48;102377.06;;;7.07;100.00
75221;BME280;63802;53.232;6.570;2024-01-30T05:45:13;102319.72;;;6.82;100.00
75221;BME280;63802;53.232;6.570;2024-01-30T05:47:42;102349.28;;;6.97;100.00
75221;BME280;63802;53.232;6.570;2024-01-30T05:50:11;102357.03;;;7.03;100.00
75221;BME280;63802;53.232;6.570;2024-01-30T05:52:37;102381.66;;;7.07;100.00
75221;BME280;63802;53.232;6.570;2024-01-30T05:55:02;102378.06;;;6.98;100.00
75221;BME280;63802;53.232;6.570;2024-01-30T05:57:28;102388.59;;;6.99;100.00
75221;BME280;63802;53.232;6.570;2024-01-30T05:59:54;102378.16;;;6.93;100.00
75221;BME280;63802;53.232;6.570;2024-01-30T06:02:20;102374.31;;;6.94;100.00
75221;BME280;63802;53.232;6.570;2024-01-30T06:04:46;102395.25;;;7.07;100.00
75221;BME280;63802;53.232;6.570;2024-01-30T06:07:11;102405.69;;;7.00;100.00
75221;BME280;63802;53.232;6.570;2024-01-30T06:09:46;102392.22;;;6.95;100.00
75221;BME280;63802;53.232;6.570;2024-01-30T06:12:13;102404.06;;;6.99;100.00
75221;BME280;63802;53.232;6.570;2024-01-30T06:14:39;102360.53;;;6.77;100.00
75221;BME280;63802;53.232;6.570;2024-01-30T06:17:05;102384.06;;;6.95;100.00
75221;BME280;63802;53.232;6.570;2024-01-30T06:19:30;102396.44;;;7.01;100.00
75221;BME280;63802;53.232;6.570;2024-01-30T06:22:08;102391.53;;;7.03;100.00
75221;BME280;63802;53.232;6.570;2024-01-30T06:24:37;102377.03;;;6.94;100.00
75221;BME280;63802;53.232;6.570;2024-01-30T06:27:12;102378.16;;;6.93;100.00
75221;BME280;63802;53.232;6.570;2024-01-30T06:29:37;102380.16;;;7.01;100.00
75221;BME280;63802;53.232;6.570;2024-01-30T06:32:06;102375.75;;;7.05;100.00
75221;BME280;63802;53.232;6.570;2024-01-30T06:34:41;102366.47;;;7.06;100.00
75221;BME280;63802;53.232;6.570;2024-01-30T06:37:09;102364.66;;;7.01;100.00
75221;BME280;63802;53.232;6.570;2024-01-30T06:39:35;102355.63;;;7.06;100.00
75221;BME280;63802;53.232;6.570;2024-01-30T06:42:00;102357.44;;;6.97;100.00
75221;BME280;63802;53.232;6.570;2024-01-30T06:44:58;102379.69;;;7.12;100.00
75221;BME280;63802;53.232;6.570;2024-01-30T06:47:42;102332.09;;;6.88;100.00
75221;BME280;63802;53.232;6.570;2024-01-30T06:50:20;102364.78;;;7.10;100.00
75221;BME280;63802;53.232;6.570;2024-01-30T06:53:05;102354.44;;;7.12;100.00
75221;BME280;63802;53.232;6.570;2024-01-30T06:55:43;102362.09;;;7.10;100.00
75221;BME280;63802;53.232;6.570;2024-01-30T06:58:21;102368.41;;;7.05;100.00
75221;BME280;63802;53.232;6.570;2024-01-30T07:00:48;102364.56;;;7.20;100.00
75221;BME280;63802;53.232;6.570;2024-01-30T07:03:14;102332.69;;;6.98;100.00
75221;BME280;63802;53.232;6.570;2024-01-30T07:05:40;102342.97;;;7.15;100.00
75221;BME280;63802;53.232;6.570;2024-01-30T07:08:44;102358.84;;;7.21;100.00
75221;BME280;63802;53.232;6.570;2024-01-30T07:11:19;102366.09;;;7.26;100.00
75221;BME280;63802;53.232;6.570;2024-01-30T07:13:51;102353.22;;;7.18;100.00
75221;BME280;63802;53.232;6.570;2024-01-30T07:16:23;102329.69;;;7.13;100.00
75221;BME280;63802;53.232;6.570;2024-01-30T07:18:49;102350.19;;;7.33;100.00
75221;BME280;63802;53.232;6.570;2024-01-30T07:21:26;102340.56;;;7.27;100.00
75221;BME280;63802;53.232;6.570;2024-01-30T07:23:54;102348.56;;;7.32;100.00
75221;BME280;63802;53.232;6.570;2024-01-30T07:26:23;102330.50;;;7.14;100.00
75221;BME280;63802;53.232;6.570;2024-01-30T07:28:50;102372.91;;;7.37;100.00
75221;BME280;63802;53.232;6.570;2024-01-30T07:31:25;102375.72;;;7.32;100.00
75221;BME280;63802;53.232;6.570;2024-01-30T07:33:57;102338.16;;;7.12;100.00
75221;BME280;63802;53.232;6.570;2024-01-30T07:36:24;102352.03;;;7.24;100.00
75221;BME280;63802;53.232;6.570;2024-01-30T07:39:10;102374.53;;;7.38;100.00
75221;BME280;63802;53.232;6.570;2024-01-30T07:41:42;102369.91;;;7.38;100.00
75221;BME280;63802;53.232;6.570;2024-01-30T07:44:12;102349.00;;;7.25;100.00
75221;BME280;63802;53.232;6.570;2024-01-30T07:47:05;102384.19;;;7.44;100.00
75221;BME280;63802;53.232;6.570;2024-01-30T07:49:43;102359.44;;;7.32;100.00
75221;BME280;63802;53.232;6.570;2024-01-30T07:52:09;102334.09;;;7.23;100.00
75221;BME280;63802;53.232;6.570;2024-01-30T07:54:51;102344.97;;;7.23;100.00
75221;BME280;63802;53.232;6.570;2024-01-30T07:57:17;102361.66;;;7.30;100.00
75221;BME280;63802;53.232;6.570;2024-01-30T08:03:27;102347.09;;;7.26;100.00
75221;BME280;63802;53.232;6.570;2024-01-30T08:06:02;102351.19;;;7.37;100.00
75221;BME280;63802;53.232;6.570;2024-01-30T08:08:35;102385.00;;;7.58;100.00
75221;BME280;63802;53.232;6.570;2024-01-30T08:11:03;102374.34;;;7.48;100.00
75221;BME280;63802;53.232;6.570;2024-01-30T08:13:36;102348.09;;;7.43;100.00
75221;BME280;63802;53.232;6.570;2024-01-30T08:16:23;102387.78;;;7.67;100.00
75221;BME280;63802;53.232;6.570;2024-01-30T08:18:50;102350.81;;;7.43;100.00
75221;BME280;63802;53.232;6.570;2024-01-30T08:21:24;102388.88;;;7.66;100.00
75221;BME280;63802;53.232;6.570;2024-01-30T08:23:55;102377.53;;;7.64;100.00
75221;BME280;63802;53.232;6.570;2024-01-30T08:26:41;102375.72;;;7.59;100.00
75221;BME280;63802;53.232;6.570;2024-01-30T08:29:29;102403.19;;;7.71;100.00
75221;BME280;63802;53.232;6.570;2024-01-30T08:32:15;102380.44;;;7.54;100.00
75221;BME280;63802;53.232;6.570;2024-01-30T08:34:47;102392.03;;;7.59;100.00
75221;BME280;63802;53.232;6.570;2024-01-30T08:37:15;102397.25;;;7.69;100.00
75221;BME280;63802;53.232;6.570;2024-01-30T08:40:00;102420.38;;;7.80;100.00
75221;BME280;63802;53.232;6.570;2024-01-30T08:42:34;102393.41;;;7.70;100.00
75221;BME280;63802;53.232;6.570;2024-01-30T08:45:09;102399.66;;;7.71;100.00
75221;BME280;63802;53.232;6.570;2024-01-30T08:47:37;102414.34;;;7.83;100.00
75221;BME280;63802;53.232;6.570;2024-01-30T08:50:10;102389.59;;;7.71;100.00
75221;BME280;63802;53.232;6.570;2024-01-30T08:52:43;102375.63;;;7.64;100.00
75221;BME280;63802;53.232;6.570;2024-01-30T08:55:29;102398.13;;;7.78;100.00
75221;BME280;63802;53.232;6.570;2024-01-30T08:57:58;102417.75;;;7.89;100.00
75221;BME280;63802;53.232;6.570;2024-01-30T09:00:31;102420.44;;;8.02;100.00
75221;BME280;63802;53.232;6.570;2024-01-30T09:03:09;102402.66;;;7.83;100.00
75221;BME280;63802;53.232;6.570;2024-01-30T09:05:37;102382.69;;;7.87;100.00
75221;BME280;63802;53.232;6.570;2024-01-30T09:08:04;102412.88;;;7.99;100.00
75221;BME280;63802;53.232;6.570;2024-01-30T09:10:30;102415.50;;;8.04;100.00
75221;BME280;63802;53.232;6.570;2024-01-30T09:13:11;102425.88;;;8.02;100.00
75221;BME280;63802;53.232;6.570;2024-01-30T09:15:37;102414.28;;;7.97;100.00
75221;BME280;63802;53.232;6.570;2024-01-30T09:18:03;102419.44;;;7.98;100.00
75221;BME280;63802;53.232;6.570;2024-01-30T09:20:29;102439.63;;;8.20;100.00
75221;BME280;63802;53.232;6.570;2024-01-30T09:22:59;102453.03;;;8.30;100.00
75221;BME280;63802;53.232;6.570;2024-01-30T09:30:32;102451.25;;;8.47;100.00
75221;BME280;63802;53.232;6.570;2024-01-30T09:33:10;102441.16;;;8.48;100.00
75221;BME280;63802;53.232;6.570;2024-01-30T09:35:37;102441.78;;;8.67;100.00
75221;BME280;63802;53.232;6.570;2024-01-30T09:38:27;102444.13;;;8.82;100.00
75221;BME280;63802;53.232;6.570;2024-01-30T09:41:31;102458.25;;;8.84;100.00
75221;BME280;63802;53.232;6.570;2024-01-30T09:44:37;102443.19;;;8.87;100.00
75221;BME280;63802;53.232;6.570;2024-01-30T09:47:06;102453.91;;;8.83;100.00
75221;BME280;63802;53.232;6.570;2024-01-30T09:49:34;102438.56;;;8.87;100.00
75221;BME280;63802;53.232;6.570;2024-01-30T09:52:05;102431.00;;;8.84;100.00
75221;BME280;63802;53.232;6.570;2024-01-30T09:54:41;102455.25;;;8.94;100.00
75221;BME280;63802;53.232;6.570;2024-01-30T09:57:11;102439.53;;;8.91;100.00
75221;BME280;63802;53.232;6.570;2024-01-30T09:59:37;102457.28;;;9.11;100.00
75221;BME280;63802;53.232;6.570;2024-01-30T10:02:13;102438.66;;;9.04;100.00
75221;BME280;63802;53.232;6.570;2024-01-30T10:04:39;102463.75;;;9.23;100.00
75221;BME280;63802;53.232;6.570;2024-01-30T10:07:06;102444.81;;;9.18;100.00
75221;BME280;63802;53.232;6.570;2024-01-30T10:09:32;102433.44;;;9.16;100.00
75221;BME280;63802;53.232;6.570;2024-01-30T10:11:59;102453.56;;;9.37;100.00
75221;BME280;63802;53.232;6.570;2024-01-30T10:14:26;102404.47;;;9.20;100.00
75221;BME280;63802;53.232;6.570;2024-01-30T10:17:14;102442.75;;;9.55;100.00
75221;BME280;63802;53.232;6.570;2024-01-30T10:19:47;102424.16;;;9.57;100.00
75221;BME280;63802;53.232;6.570;2024-01-30T10:22:13;102422.38;;;9.61;100.00
75221;BME280;63802;53.232;6.570;2024-01-30T10:24:40;102433.63;;;9.68;100.00
75221;BME280;63802;53.232;6.570;2024-01-30T10:27:06;102452.41;;;9.78;100.00
75221;BME280;63802;53.232;6.570;2024-01-30T10:29:32;102448.06;;;9.77;100.00
75221;BME280;63802;53.232;6.570;2024-01-30T10:32:02;102442.16;;;9.75;100.00
75221;BME280;63802;53.232;6.570;2024-01-30T10:34:28;102454.03;;;9.79;100.00
75221;BME280;63802;53.232;6.570;2024-01-30T10:37:07;102456.13;;;9.82;100.00
75221;BME280;63802;53.232;6.570;2024-01-30T10:39:38;102466.53;;;9.80;100.00
75221;BME280;63802;53.232;6.570;2024-01-30T10:42:04;102464.56;;;9.72;100.00
75221;BME280;63802;53.232;6.570;2024-01-30T10:44:48;102473.88;;;9.71;100.00
75221;BME280;63802;53.232;6.570;2024-01-30T10:47:24;102454.94;;;9.66;100.00
75221;BME280;63802;53.232;6.570;2024-01-30T10:49:51;102461.50;;;9.65;100.00
75221;BME280;63802;53.232;6.570;2024-01-30T10:52:18;102459.28;;;9.67;100.00
75221;BME280;63802;53.232;6.570;2024-01-30T10:54:44;102451.59;;;9.69;100.00
75221;BME280;63802;53.232;6.570;2024-01-30T10:57:11;102440.50;;;9.57;100.00
75221;BME280;63802;53.232;6.570;2024-01-30T10:59:38;102453.84;;;9.75;100.00
75221;BME280;63802;53.232;6.570;2024-01-30T11:02:04;102453.38;;;9.82;100.00
75221;BME280;63802;53.232;6.570;2024-01-30T11:04:37;102457.25;;;9.81;100.00
75221;BME280;63802;53.232;6.570;2024-01-30T11:07:13;102448.22;;;9.72;100.00
75221;BME280;63802;53.232;6.570;2024-01-30T11:09:39;102465.44;;;9.81;100.00
75221;BME280;63802;53.232;6.570;2024-01-30T11:12:04;102465.72;;;9.79;100.00
75221;BME280;63802;53.232;6.570;2024-01-30T11:14:30;102453.38;;;9.73;100.00
75221;BME280;63802;53.232;6.570;2024-01-30T11:16:59;102451.59;;;9.69;100.00
75221;BME280;63802;53.232;6.570;2024-01-30T11:19:25;102461.72;;;9.77;100.00
75221;BME280;63802;53.232;6.570;2024-01-30T11:21:53;102456.78;;;9.79;100.00
75221;BME280;63802;53.232;6.570;2024-01-30T11:24:20;102435.72;;;9.71;100.00
75221;BME280;63802;53.232;6.570;2024-01-30T11:26:59;102456.72;;;9.70;100.00
75221;BME280;63802;53.232;6.570;2024-01-30T11:29:27;102468.16;;;9.81;100.00
75221;BME280;63802;53.232;6.570;2024-01-30T11:31:57;102468.16;;;9.81;100.00
75221;BME280;63802;53.232;6.570;2024-01-30T11:34:25;102457.53;;;9.79;100.00
75221;BME280;63802;53.232;6.570;2024-01-30T11:36:59;102459.78;;;9.77;100.00
75221;BME280;63802;53.232;6.570;2024-01-30T11:39:29;102479.50;;;9.74;100.00
75221;BME280;63802;53.232;6.570;2024-01-30T11:41:55;102473.09;;;9.70;100.00
75221;BME280;63802;53.232;6.570;2024-01-30T11:44:21;102470.03;;;9.72;100.00
75221;BME280;63802;53.232;6.570;2024-01-30T11:46:53;102479.81;;;9.73;100.00
75221;BME280;63802;53.232;6.570;2024-01-30T11:49:18;102475.66;;;9.67;100.00
75221;BME280;63802;53.232;6.570;2024-01-30T11:51:47;102481.59;;;9.69;100.00
75221;BME280;63802;53.232;6.570;2024-01-30T11:54:16;102483.03;;;9.75;100.00
75221;BME280;63802;53.232;6.570;2024-01-30T11:56:42;102479.34;;;9.71;100.00
75221;BME280;63802;53.232;6.570;2024-01-30T11:59:08;102480.59;;;9.65;100.00
75221;BME280;63802;53.232;6.570;2024-01-30T12:01:34;102479.81;;;9.73;100.00
75221;BME280;63802;53.232;6.570;2024-01-30T12:04:00;102492.00;;;9.67;100.00
75221;BME280;63802;53.232;6.570;2024-01-30T12:06:25;102484.78;;;9.71;100.00
75221;BME280;63802;53.232;6.570;2024-01-30T12:09:02;102488.94;;;9.60;100.00
75221;BME280;63802;53.232;6.570;2024-01-30T12:11:31;102481.31;;;9.48;100.00
75221;BME280;63802;53.232;6.570;2024-01-30T12:13:57;102499.47;;;9.53;100.00
75221;BME280;63802;53.232;6.570;2024-01-30T12:16:23;102496.69;;;9.35;100.00
75221;BME280;63802;53.232;6.570;2024-01-30T12:18:48;102497.16;;;9.37;100.00
75221;BME280;63802;53.232;6.570;2024-01-30T12:21:17;102504.56;;;9.45;100.00
75221;BME280;63802;53.232;6.570;2024-01-30T12:23:45;102489.13;;;9.32;100.00
75221;BME280;63802;53.232;6.570;2024-01-30T12:26:12;102489.75;;;9.29;100.00
75221;BME280;63802;53.232;6.570;2024-01-30T12:28:47;102499.03;;;9.28;100.00
75221;BME280;63802;53.232;6.570;2024-01-30T12:31:12;102487.75;;;9.21;100.00
75221;BME280;63802;53.232;6.570;2024-01-30T12:33:38;102481.81;;;9.19;100.00
75221;BME280;63802;53.232;6.570;2024-01-30T12:36:04;102497.28;;;9.32;100.00
75221;BME280;63802;53.232;6.570;2024-01-30T12:38:30;102506.44;;;9.36;100.00
75221;BME280;63802;53.232;6.570;2024-01-30T12:40:55;102485.66;;;9.40;100.00
75221;BME280;63802;53.232;6.570;2024-01-30T12:43:23;102486.88;;;9.34;100.00
75221;BME280;63802;53.232;6.570;2024-01-30T12:45:49;102493.59;;;9.28;100.00
75221;BME280;63802;53.232;6.570;2024-01-30T12:48:15;102514.13;;;9.34;100.00
75221;BME280;63802;53.232;6.570;2024-01-30T12:50:43;102513.28;;;9.25;100.00
75221;BME280;63802;53.232;6.570;2024-01-30T12:53:09;102502.25;;;9.30;100.00
75221;BME280;63802;53.232;6.570;2024-01-30T12:55:35;102505.34;;;9.37;100.00
75221;BME280;63802;53.232;6.570;2024-01-30T12:58:00;102493.94;;;9.35;100.00
75221;BME280;63802;53.232;6.570;2024-01-30T13:00:26;102498.94;;;9.42;100.00
75221;BME280;63802;53.232;6.570;2024-01-30T13:02:51;102502.97;;;9.44;100.00
75221;BME280;63802;53.232;6.570;2024-01-30T13:05:17;102479.06;;;9.41;100.00
75221;BME280;63802;53.232;6.570;2024-01-30T13:07:42;102479.19;;;9.36;100.00
75221;BME280;63802;53.232;6.570;2024-01-30T13:10:08;102473.13;;;9.39;100.00
75221;BME280;63802;53.232;6.570;2024-01-30T13:12:34;102477.97;;;9.51;100.00
75221;BME280;63802;53.232;6.570;2024-01-30T13:14:59;102481.69;;;9.55;100.00
75221;BME280;63802;53.232;6.570;2024-01-30T13:17:29;102479.41;;;9.49;100.00
75221;BME280;63802;53.232;6.570;2024-01-30T13:19:54;102476.47;;;9.36;100.00
75221;BME280;63802;53.232;6.570;2024-01-30T13:22:20;102476.47;;;9.36;100.00
75221;BME280;63802;53.232;6.570;2024-01-30T13:24:48;102472.78;;;9.32;100.00
75221;BME280;63802;53.232;6.570;2024-01-30T13:27:13;102464.38;;;9.20;100.00
75221;BME280;63802;53.232;6.570;2024-01-30T13:29:39;102457.31;;;9.19;100.00
75221;BME280;63802;53.232;6.570;2024-01-30T13:32:04;102479.31;;;9.31;100.00
75221;BME280;63802;53.232;6.570;2024-01-30T13:34:30;102472.69;;;9.15;100.00
75221;BME280;63802;53.232;6.570;2024-01-30T13:36:55;102474.31;;;9.16;100.00
75221;BME280;63802;53.232;6.570;2024-01-30T13:39:21;102469.91;;;9.07;100.00
75221;BME280;63802;53.232;6.570;2024-01-30T13:41:46;102464.28;;;9.03;100.00
75221;BME280;63802;53.232;6.570;2024-01-30T13:44:13;102463.84;;;9.10;100.00
75221;BME280;63802;53.232;6.570;2024-01-30T13:46:39;102467.34;;;9.02;100.00
75221;BME280;63802;53.232;6.570;2024-01-30T13:49:04;102464.63;;;9.10;100.00
75221;BME280;63802;53.232;6.570;2024-01-30T13:51:29;102447.59;;;8.96;100.00
75221;BME280;63802;53.232;6.570;2024-01-30T13:53:55;102466.69;;;9.05;100.00
75221;BME280;63802;53.232;6.570;2024-01-30T13:56:20;102460.09;;;8.97;100.00